createdAt,value
2018-06-14T00:01:22.130Z,97907.05
2018-06-14T00:03:51.082Z,97897.67
2018-06-14T00:06:20.056Z,97896.86
2018-06-14T00:08:49.252Z,97907.30
2018-06-14T00:11:18.534Z,97909.98
2018-06-14T00:13:47.764Z,97901.69
2018-06-14T00:16:17.087Z,97906.22
2018-06-14T00:18:46.352Z,97907.56
2018-06-14T00:21:15.622Z,97905.69
2018-06-14T00:23:44.624Z,97908.37
2018-06-14T00:26:13.855Z,97902.47
2018-06-14T00:28:43.055Z,97908.62
2018-06-14T00:31:12.267Z,97899.23
2018-06-14T00:33:41.478Z,97900.30
2018-06-14T00:36:10.684Z,97897.92
2018-06-14T00:38:39.691Z,97890.98
2018-06-14T00:41:08.953Z,97891.77
2018-06-14T00:43:38.206Z,97890.43
2018-06-14T00:46:07.402Z,97889.03
2018-06-14T00:48:36.680Z,97884.22
2018-06-14T00:51:05.870Z,97883.13
2018-06-14T00:53:35.087Z,97880.20
2018-06-14T00:56:04.380Z,97889.03
2018-06-14T00:58:33.623Z,97887.17
2018-06-14T01:01:02.847Z,97885.30
2018-06-14T01:03:32.119Z,97885.00
2018-06-14T01:06:01.335Z,97891.99
2018-06-14T01:08:30.764Z,97891.45
2018-06-14T01:11:00.375Z,97885.30
2018-06-14T01:13:29.707Z,97886.36
2018-06-14T01:15:58.922Z,97881.27
2018-06-14T01:18:28.166Z,97889.81
2018-06-14T01:20:57.398Z,97890.03
2018-06-14T01:23:26.667Z,97894.33
2018-06-14T01:25:55.872Z,97894.11
2018-06-14T01:28:25.103Z,97891.18
2018-06-14T01:30:54.338Z,97892.20
2018-06-14T01:33:23.574Z,97889.78
2018-06-14T01:35:52.816Z,97887.67
2018-06-14T01:38:26.398Z,97884.44
2018-06-14T01:40:55.904Z,97882.30
2018-06-14T01:43:25.214Z,97876.11
2018-06-14T01:45:54.483Z,97875.89
2018-06-14T01:48:23.726Z,97877.23
2018-06-14T01:50:52.966Z,97876.67
2018-06-14T01:53:21.957Z,97870.77
2018-06-14T01:55:51.198Z,97873.72
2018-06-14T01:58:20.443Z,97871.53
2018-06-14T02:00:49.675Z,97871.26
2018-06-14T02:03:18.948Z,97868.02
2018-06-14T02:05:48.190Z,97869.39
2018-06-14T02:08:17.428Z,97871.59
2018-06-14T02:10:46.666Z,97872.38
2018-06-14T02:13:15.935Z,97879.03
2018-06-14T02:15:45.219Z,97876.60
2018-06-14T02:18:14.457Z,97877.06
2018-06-14T02:20:43.684Z,97875.72
2018-06-14T02:23:12.922Z,97866.09
2018-06-14T02:25:42.180Z,97866.87
2018-06-14T02:28:11.390Z,97863.34
2018-06-14T02:30:40.687Z,97865.81
2018-06-14T02:33:09.929Z,97864.75
2018-06-14T02:35:39.168Z,97860.99
2018-06-14T02:38:08.410Z,97863.10
2018-06-14T02:40:37.648Z,97863.34
2018-06-14T02:43:06.863Z,97866.02
2018-06-14T02:45:36.103Z,97860.67
2018-06-14T02:48:05.642Z,97868.41
2018-06-14T02:50:34.906Z,97869.17
2018-06-14T02:53:04.209Z,97870.80
2018-06-14T02:55:33.217Z,97871.60
2018-06-14T02:58:02.572Z,97869.78
2018-06-14T03:00:31.831Z,97871.89
2018-06-14T03:03:01.162Z,97870.83
2018-06-14T03:05:30.385Z,97871.60
2018-06-14T03:07:59.591Z,97874.27
2018-06-14T03:10:29.803Z,97868.41
2018-06-14T03:12:59.031Z,97866.50
2018-06-14T03:15:28.299Z,97862.53
2018-06-14T03:17:57.555Z,97865.17
2018-06-14T03:20:28.255Z,97865.70
2018-06-14T03:22:58.070Z,97867.31
2018-06-14T03:25:27.299Z,97867.84
2018-06-14T03:27:56.587Z,97859.55
2018-06-14T03:30:25.800Z,97861.72
2018-06-14T03:32:55.175Z,97868.45
2018-06-14T03:35:24.405Z,97861.52
2018-06-14T03:37:53.641Z,97866.02
2018-06-14T03:40:22.874Z,97867.06
2018-06-14T03:42:52.118Z,97863.66
2018-06-14T03:45:22.210Z,97876.17
2018-06-14T03:47:51.860Z,97869.50
2018-06-14T03:50:21.082Z,97875.93
2018-06-14T03:52:50.316Z,97877.83
2018-06-14T03:55:19.600Z,97878.36
2018-06-14T03:57:48.822Z,97883.95
2018-06-14T04:00:18.092Z,97877.55
2018-06-14T04:02:47.379Z,97877.34
2018-06-14T04:05:16.679Z,97881.38
2018-06-14T04:07:45.989Z,97888.34
2018-06-14T04:10:15.266Z,97886.45
2018-06-14T04:12:44.473Z,97885.22
2018-06-14T04:15:13.760Z,97880.43
2018-06-14T04:17:43.028Z,97883.88
2018-06-14T04:20:12.238Z,97885.22
2018-06-14T04:22:41.460Z,97880.61
2018-06-14T04:25:10.678Z,97885.80
2018-06-14T04:27:39.914Z,97885.80
2018-06-14T04:30:09.134Z,97880.20
2018-06-14T04:32:38.359Z,97882.66
2018-06-14T04:35:07.571Z,97880.84
2018-06-14T04:37:36.914Z,97878.70
2018-06-14T04:40:06.226Z,97890.17
2018-06-14T04:42:35.468Z,97891.54
2018-06-14T04:45:04.678Z,97884.33
2018-06-14T04:47:33.914Z,97886.46
2018-06-14T04:50:03.170Z,97885.45
2018-06-14T04:52:32.439Z,97888.66
2018-06-14T04:55:01.679Z,97887.88
2018-06-14T04:57:30.935Z,97892.18
2018-06-14T05:00:00.193Z,97895.67
2018-06-14T05:02:29.471Z,97893.79
2018-06-14T05:04:58.695Z,97896.73
2018-06-14T05:07:27.911Z,97890.05
2018-06-14T05:09:57.163Z,97895.17
2018-06-14T05:12:26.425Z,97891.18
2018-06-14T05:14:55.652Z,97893.57
2018-06-14T05:17:24.898Z,97891.71
2018-06-14T05:19:54.078Z,97893.86
2018-06-14T05:22:23.338Z,97901.89
2018-06-14T05:24:52.554Z,97901.62
2018-06-14T05:27:21.759Z,97905.11
2018-06-14T05:29:50.995Z,97903.77
2018-06-14T05:32:20.254Z,97903.48
2018-06-14T05:34:49.487Z,97897.61
2018-06-14T05:37:18.959Z,97905.11
2018-06-14T05:39:48.254Z,97896.81
2018-06-14T05:42:17.530Z,97901.08
2018-06-14T05:44:46.859Z,97913.95
2018-06-14T05:47:16.187Z,97908.59
2018-06-14T05:49:45.558Z,97906.45
2018-06-14T05:52:14.812Z,97906.70
2018-06-14T05:54:44.070Z,97913.69
2018-06-14T05:57:13.275Z,97914.67
2018-06-14T05:59:42.492Z,97915.76
2018-06-14T06:02:11.698Z,97913.63
2018-06-14T06:04:40.987Z,97912.81
2018-06-14T06:07:10.163Z,97911.73
2018-06-14T06:09:39.366Z,97908.47
2018-06-14T06:12:08.614Z,97904.72
2018-06-14T06:14:37.911Z,97905.22
2018-06-14T06:17:07.101Z,97906.77
2018-06-14T06:19:36.334Z,97900.41
2018-06-14T06:22:05.529Z,97904.91
2018-06-14T06:24:34.786Z,97897.59
2018-06-14T06:27:04.029Z,97903.78
2018-06-14T06:29:33.241Z,97911.87
2018-06-14T06:32:02.482Z,97901.34
2018-06-14T06:34:31.742Z,97898.16
2018-06-14T06:37:00.959Z,97903.17
2018-06-14T06:39:30.170Z,97895.26
2018-06-14T06:41:59.487Z,97902.72
2018-06-14T06:44:28.710Z,97898.95
2018-06-14T06:46:58.019Z,97903.34
2018-06-14T06:49:27.248Z,97894.77
2018-06-14T06:51:56.527Z,97897.00
2018-06-14T06:54:25.498Z,97901.30
2018-06-14T06:56:54.758Z,97893.27
2018-06-14T06:59:23.995Z,97894.23
2018-06-14T07:01:53.221Z,97893.25
2018-06-14T07:04:22.435Z,97892.20
2018-06-14T07:06:51.730Z,97899.92
2018-06-14T07:09:21.002Z,97898.88
2018-06-14T07:11:50.379Z,97895.08
2018-06-14T07:14:19.592Z,97889.11
2018-06-14T07:16:48.826Z,97891.63
2018-06-14T07:19:18.022Z,97890.13
2018-06-14T07:21:47.283Z,97880.98
2018-06-14T07:24:16.512Z,97879.03
2018-06-14T07:26:45.808Z,97884.22
2018-06-14T07:29:15.060Z,97877.88
2018-06-14T07:31:44.383Z,97887.36
2018-06-14T07:34:13.597Z,97885.48
2018-06-14T07:36:42.843Z,97893.01
2018-06-14T07:39:13.045Z,97890.08
2018-06-14T07:41:42.267Z,97893.38
2018-06-14T07:44:11.484Z,97894.72
2018-06-14T07:46:40.725Z,97899.11
2018-06-14T07:49:09.910Z,97898.88
2018-06-14T07:51:39.127Z,97899.35
2018-06-14T07:54:08.370Z,97897.03
2018-06-14T07:56:37.527Z,97903.61
2018-06-14T07:59:06.730Z,97908.45
2018-06-14T08:01:35.966Z,97906.64
2018-06-14T08:04:05.155Z,97912.72
2018-06-14T08:06:34.480Z,97902.03
2018-06-14T08:09:04.911Z,97904.27
2018-06-14T08:11:34.077Z,97902.80
2018-06-14T08:14:03.601Z,97900.28
2018-06-14T08:16:32.844Z,97901.61
2018-06-14T08:19:02.198Z,97903.41
2018-06-14T08:21:31.393Z,97901.01
2018-06-14T08:24:00.654Z,97907.98
2018-06-14T08:26:29.868Z,97911.69
2018-06-14T08:28:59.058Z,97911.44
2018-06-14T08:31:28.295Z,97909.36
2018-06-14T08:33:57.534Z,97906.01
2018-06-14T08:36:26.748Z,97896.46
2018-06-14T08:38:56.238Z,97900.95
2018-06-14T08:41:25.691Z,97904.37
2018-06-14T08:43:54.931Z,97902.53
2018-06-14T08:46:24.154Z,97902.66
2018-06-14T08:48:53.367Z,97895.77
2018-06-14T08:51:22.568Z,97908.05
2018-06-14T08:53:51.804Z,97901.41
2018-06-14T08:56:21.049Z,97902.11
2018-06-14T08:58:50.285Z,97905.23
2018-06-14T09:01:19.570Z,97896.13
2018-06-14T09:03:48.819Z,97896.25
2018-06-14T09:06:18.122Z,97895.28
2018-06-14T09:08:47.372Z,97900.20
2018-06-14T09:11:16.670Z,97897.20
2018-06-14T09:13:45.987Z,97903.13
2018-06-14T09:16:15.274Z,97906.69
2018-06-14T09:18:44.295Z,97906.55
2018-06-14T09:21:13.513Z,97912.47
2018-06-14T09:23:42.879Z,97910.01
2018-06-14T09:26:12.081Z,97911.08
2018-06-14T09:28:41.306Z,97913.39
2018-06-14T09:31:10.523Z,97908.38
2018-06-14T09:33:39.828Z,97912.63
2018-06-14T09:36:08.985Z,97905.95
2018-06-14T09:38:38.201Z,97905.50
2018-06-14T09:41:07.404Z,97898.07
2018-06-14T09:43:36.649Z,97896.91
2018-06-14T09:46:05.858Z,97906.30
2018-06-14T09:48:35.126Z,97911.06
2018-06-14T09:51:04.375Z,97912.61
2018-06-14T09:53:33.593Z,97900.64
2018-06-14T09:56:02.862Z,97899.55
2018-06-14T09:58:32.108Z,97903.77
2018-06-14T10:01:01.434Z,97901.59
2018-06-14T10:03:30.605Z,97898.48
2018-06-14T10:06:00.322Z,97905.60
2018-06-14T10:08:29.525Z,97900.38
2018-06-14T10:10:58.721Z,97898.67
2018-06-14T10:13:27.928Z,97902.38
2018-06-14T10:15:57.071Z,97888.63
2018-06-14T10:18:26.576Z,97894.03
2018-06-14T10:20:55.816Z,97898.88
2018-06-14T10:23:25.025Z,97894.25
2018-06-14T10:25:54.211Z,97890.63
2018-06-14T10:28:23.446Z,97889.72
2018-06-14T10:30:52.668Z,97888.32
2018-06-14T10:33:21.788Z,97889.61
2018-06-14T10:35:51.006Z,97891.95
2018-06-14T10:38:20.296Z,97877.95
2018-06-14T10:40:49.558Z,97880.26
2018-06-14T10:43:18.814Z,97880.17
2018-06-14T10:45:48.238Z,97879.30
2018-06-14T10:48:17.473Z,97873.27
2018-06-14T10:50:46.864Z,97878.02
2018-06-14T10:53:16.511Z,97867.61
2018-06-14T10:55:45.808Z,97871.03
2018-06-14T10:58:15.045Z,97879.12
2018-06-14T11:00:44.428Z,97876.45
2018-06-14T11:03:13.620Z,97868.80
2018-06-14T11:05:42.856Z,97863.98
2018-06-14T11:08:11.997Z,97868.34
2018-06-14T11:10:41.291Z,97869.43
2018-06-14T11:13:10.570Z,97869.11
2018-06-14T11:15:39.609Z,97865.74
2018-06-14T11:18:08.942Z,97867.69
2018-06-14T11:20:38.409Z,97863.30
2018-06-14T11:23:07.745Z,97864.45
2018-06-14T11:25:37.103Z,97865.19
2018-06-14T11:28:06.520Z,97853.01
2018-06-14T11:30:35.889Z,97856.23
2018-06-14T11:33:05.372Z,97858.81
2018-06-14T11:35:34.396Z,97857.64
2018-06-14T11:38:03.684Z,97858.77
2018-06-14T11:40:32.940Z,97857.31
2018-06-14T11:43:02.204Z,97853.30
2018-06-14T11:45:31.531Z,97845.63
2018-06-14T11:48:00.892Z,97847.25
2018-06-14T11:50:30.190Z,97847.42
2018-06-14T11:52:59.473Z,97848.92
2018-06-14T11:55:28.761Z,97844.92
2018-06-14T11:57:58.087Z,97844.85
2018-06-14T12:00:27.391Z,97843.42
2018-06-14T12:02:56.794Z,97842.61
2018-06-14T12:05:26.043Z,97839.55
2018-06-14T12:07:55.434Z,97838.83
2018-06-14T12:10:24.791Z,97844.12
2018-06-14T12:12:54.059Z,97826.08
2018-06-14T12:15:23.347Z,97823.80
2018-06-14T12:17:52.704Z,97826.77
2018-06-14T12:20:22.059Z,97835.33
2018-06-14T12:22:51.331Z,97824.22
2018-06-14T12:25:20.720Z,97818.81
2018-06-14T12:27:50.077Z,97820.47
2018-06-14T12:30:19.370Z,97818.14
2018-06-14T12:32:48.992Z,97819.13
2018-06-14T12:35:18.098Z,97816.82
2018-06-14T12:37:47.550Z,97815.06
2018-06-14T12:40:16.962Z,97802.03
2018-06-14T12:42:46.315Z,97809.00
2018-06-14T12:45:15.732Z,97800.36
2018-06-14T12:47:45.170Z,97801.11
2018-06-14T12:50:14.516Z,97798.59
2018-06-14T12:52:43.847Z,97803.17
2018-06-14T12:55:13.230Z,97814.13
2018-06-14T12:57:42.583Z,97806.86
2018-06-14T13:00:11.859Z,97800.06
2018-06-14T13:02:41.183Z,97795.14
2018-06-14T13:05:10.210Z,97790.30
2018-06-14T13:07:39.455Z,97788.99
2018-06-14T13:10:08.768Z,97790.78
2018-06-14T13:12:38.183Z,97785.97
2018-06-14T13:15:07.549Z,97784.31
2018-06-14T13:17:36.942Z,97786.37
2018-06-14T13:20:06.299Z,97791.80
2018-06-14T13:22:35.526Z,97784.66
2018-06-14T13:25:04.768Z,97780.48
2018-06-14T13:27:33.986Z,97784.09
2018-06-14T13:30:03.391Z,97784.04
2018-06-14T13:32:32.687Z,97782.45
2018-06-14T13:35:01.966Z,97781.91
2018-06-14T13:37:31.233Z,97779.73
2018-06-14T13:40:00.759Z,97778.67
2018-06-14T13:42:30.028Z,97774.58
2018-06-14T13:44:59.330Z,97779.44
2018-06-14T13:47:28.598Z,97773.48
2018-06-14T13:49:58.030Z,97770.56
2018-06-14T13:52:27.300Z,97767.80
2018-06-14T13:54:56.589Z,97767.80
2018-06-14T13:57:25.839Z,97766.53
2018-06-14T13:59:55.125Z,97764.42
2018-06-14T14:02:24.365Z,97770.23
2018-06-14T14:04:53.696Z,97765.22
2018-06-14T14:07:27.034Z,97760.58
2018-06-14T14:09:57.703Z,97762.44
2018-06-14T14:12:27.704Z,97758.97
2018-06-14T14:14:57.457Z,97749.23
2018-06-14T14:17:26.716Z,97748.91
2018-06-14T14:19:56.043Z,97746.03
2018-06-14T14:22:25.350Z,97741.27
2018-06-14T14:24:54.535Z,97735.49
2018-06-14T14:27:23.770Z,97739.33
2018-06-14T14:29:53.142Z,97742.81
2018-06-14T14:32:22.415Z,97734.91
2018-06-14T14:34:51.670Z,97734.69
2018-06-14T14:37:21.072Z,97735.92
2018-06-14T14:39:50.427Z,97735.66
2018-06-14T14:42:19.786Z,97728.72
2018-06-14T14:44:49.179Z,97740.34
2018-06-14T14:47:18.519Z,97734.81
2018-06-14T14:49:47.949Z,97725.62
2018-06-14T14:52:17.409Z,97723.23
2018-06-14T14:54:46.788Z,97724.99
2018-06-14T14:57:16.231Z,97717.88
2018-06-14T14:59:45.649Z,97719.45
2018-06-14T15:02:15.011Z,97715.84
2018-06-14T15:04:44.436Z,97721.27
2018-06-14T15:07:13.722Z,97718.24
2018-06-14T15:09:43.031Z,97716.59
2018-06-14T15:12:12.304Z,97717.27
2018-06-14T15:14:41.602Z,97712.41
2018-06-14T15:17:10.855Z,97711.02
2018-06-14T15:19:40.150Z,97713.33
2018-06-14T15:22:09.481Z,97713.70
2018-06-14T15:24:38.926Z,97713.54
2018-06-14T15:27:08.288Z,97716.03
2018-06-14T15:29:37.858Z,97715.34
2018-06-14T15:32:06.933Z,97717.14
2018-06-14T15:34:36.325Z,97722.64
2018-06-14T15:37:05.655Z,97713.19
2018-06-14T15:39:35.020Z,97717.24
2018-06-14T15:42:04.374Z,97712.63
2018-06-14T15:44:33.853Z,97706.69
2018-06-14T15:47:03.193Z,97708.34
2018-06-14T15:49:32.525Z,97704.19
2018-06-14T15:52:01.761Z,97704.26
2018-06-14T15:54:31.241Z,97703.32
2018-06-14T15:57:00.535Z,97702.68
2018-06-14T15:59:29.868Z,97697.90
2018-06-14T16:01:59.193Z,97700.27
2018-06-14T16:04:28.526Z,97705.63
2018-06-14T16:06:57.801Z,97698.20
2018-06-14T16:09:27.115Z,97695.05
2018-06-14T16:11:56.520Z,97700.77
2018-06-14T16:17:00.401Z,97706.19
2018-06-14T16:19:29.695Z,97704.83
2018-06-14T16:21:58.975Z,97713.39
2018-06-14T16:24:28.255Z,97707.11
2018-06-14T16:26:57.517Z,97707.86
2018-06-14T16:29:26.814Z,97705.07
2018-06-14T16:31:56.135Z,97704.03
2018-06-14T16:34:25.431Z,97705.05
2018-06-14T16:36:54.746Z,97710.34
2018-06-14T16:39:24.066Z,97708.25
2018-06-14T16:41:54.658Z,97707.45
2018-06-14T16:44:25.984Z,97703.80
2018-06-14T16:46:55.283Z,97706.41
2018-06-14T16:49:24.585Z,97707.52
2018-06-14T16:51:53.894Z,97707.70
2018-06-14T16:54:23.154Z,97706.77
2018-06-14T16:56:52.406Z,97702.91
2018-06-14T16:59:21.740Z,97707.08
2018-06-14T17:01:51.139Z,97710.88
2018-06-14T17:04:20.362Z,97708.19
2018-06-14T17:06:49.653Z,97711.17
2018-06-14T17:09:18.909Z,97708.19
2018-06-14T17:11:48.162Z,97710.80
2018-06-14T17:14:17.468Z,97709.34
2018-06-14T17:16:46.652Z,97716.23
2018-06-14T17:19:15.657Z,97712.59
2018-06-14T17:21:44.881Z,97711.75
2018-06-14T17:24:14.214Z,97713.77
2018-06-14T17:26:43.490Z,97711.38
2018-06-14T17:29:12.707Z,97711.31
2018-06-14T17:31:41.906Z,97711.51
2018-06-14T17:34:11.614Z,97710.45
2018-06-14T17:36:40.907Z,97706.04
2018-06-14T17:39:10.154Z,97713.66
2018-06-14T17:41:39.428Z,97707.98
2018-06-14T17:44:08.723Z,97707.09
2018-06-14T17:46:37.908Z,97708.85
2018-06-14T17:49:07.061Z,97712.36
2018-06-14T17:51:36.262Z,97719.70
2018-06-14T17:54:05.475Z,97727.13
2018-06-14T17:56:34.710Z,97727.67
2018-06-14T17:59:03.918Z,97734.46
2018-06-14T18:01:33.161Z,97739.02
2018-06-14T18:04:02.480Z,97742.48
2018-06-14T18:06:31.735Z,97746.47
2018-06-14T18:09:01.009Z,97750.16
2018-06-14T18:11:30.245Z,97750.04
2018-06-14T18:13:59.600Z,97761.28
2018-06-14T18:16:28.851Z,97757.63
2018-06-14T18:18:58.110Z,97750.78
2018-06-14T18:21:27.344Z,97759.84
2018-06-14T18:23:56.574Z,97769.94
2018-06-14T18:26:25.797Z,97766.97
2018-06-14T18:28:55.025Z,97767.17
2018-06-14T18:31:24.284Z,97775.48
2018-06-14T18:33:53.747Z,97780.98
2018-06-14T18:36:23.054Z,97781.08
2018-06-14T18:38:52.283Z,97781.20
2018-06-14T18:41:21.552Z,97784.38
2018-06-14T18:43:50.830Z,97784.30
2018-06-14T18:46:20.139Z,97790.64
2018-06-14T18:48:49.381Z,97789.69
2018-06-14T18:51:18.634Z,97786.09
2018-06-14T18:53:48.091Z,97789.14
2018-06-14T18:56:17.473Z,97790.86
2018-06-14T18:58:46.710Z,97798.73
2018-06-14T19:01:17.161Z,97796.22
2018-06-14T19:03:46.387Z,97792.61
2018-06-14T19:06:15.653Z,97798.90
2018-06-14T19:08:44.872Z,97806.05
2018-06-14T19:11:14.155Z,97807.55
2018-06-14T19:13:43.255Z,97804.77
2018-06-14T19:16:12.276Z,97808.13
2018-06-14T19:18:48.392Z,97807.86
2018-06-14T19:21:17.788Z,97810.98
2018-06-14T19:23:47.075Z,97815.91
2018-06-14T19:26:16.617Z,97820.75
2018-06-14T19:28:45.900Z,97819.44
2018-06-14T19:31:14.967Z,97816.98
2018-06-14T19:33:44.287Z,97827.84
2018-06-14T19:36:13.612Z,97831.34
2018-06-14T19:38:42.988Z,97836.98
2018-06-14T19:41:12.234Z,97847.00
2018-06-14T19:43:41.592Z,97841.16
2018-06-14T19:46:10.936Z,97848.14
2018-06-14T19:48:40.282Z,97852.72
2018-06-14T19:51:10.584Z,97853.30
2018-06-14T19:53:39.798Z,97863.48
2018-06-14T19:56:10.123Z,97863.33
2018-06-14T19:58:39.555Z,97867.87
2018-06-14T20:01:08.894Z,97875.98
2018-06-14T20:03:38.138Z,97872.27
2018-06-14T20:06:07.391Z,97877.11
2018-06-14T20:08:36.643Z,97881.69
2018-06-14T20:11:05.974Z,97880.34
2018-06-14T20:13:35.274Z,97880.36
2018-06-14T20:16:04.923Z,97879.84
2018-06-14T20:18:34.164Z,97886.27
2018-06-14T20:21:03.477Z,97890.58
2018-06-14T20:23:32.697Z,97884.16
2018-06-14T20:26:02.113Z,97881.75
2018-06-14T20:28:31.370Z,97890.09
2018-06-14T20:31:00.663Z,97892.49
2018-06-14T20:33:29.931Z,97893.58
2018-06-14T20:35:59.070Z,97897.05
2018-06-14T20:38:28.396Z,97893.86
2018-06-14T20:40:57.699Z,97895.18
2018-06-14T20:43:26.926Z,97891.70
2018-06-14T20:45:55.972Z,97891.98
2018-06-14T20:48:25.249Z,97892.52
2018-06-14T20:50:54.462Z,97902.43
2018-06-14T20:53:23.755Z,97902.44
2018-06-14T20:55:53.184Z,97901.63
2018-06-14T20:58:22.439Z,97904.03
2018-06-14T21:00:51.691Z,97905.64
2018-06-14T21:03:21.018Z,97911.01
2018-06-14T21:05:50.217Z,97910.19
2018-06-14T21:08:19.650Z,97909.66
2018-06-14T21:10:48.929Z,97906.99
2018-06-14T21:13:18.216Z,97913.94
2018-06-14T21:15:48.628Z,97916.09
2018-06-14T21:18:17.965Z,97912.33
2018-06-14T21:20:47.271Z,97914.48
2018-06-14T21:23:16.591Z,97917.41
2018-06-14T21:25:45.943Z,97915.00
2018-06-14T21:28:15.203Z,97920.36
2018-06-14T21:30:44.784Z,97921.97
2018-06-14T21:33:14.159Z,97927.05
2018-06-14T21:35:43.422Z,97925.98
2018-06-14T21:38:12.639Z,97930.27
2018-06-14T21:40:41.861Z,97924.35
2018-06-14T21:43:11.092Z,97931.00
2018-06-14T21:45:40.339Z,97931.02
2018-06-14T21:48:09.627Z,97929.42
2018-06-14T21:50:38.846Z,97922.17
2018-06-14T21:53:08.099Z,97926.20
2018-06-14T21:55:37.370Z,97927.55
2018-06-14T21:58:06.631Z,97929.68
2018-06-14T22:00:35.925Z,97925.10
2018-06-14T22:03:10.383Z,97926.47
2018-06-14T22:05:39.628Z,97930.22
2018-06-14T22:08:08.855Z,97926.98
2018-06-14T22:10:38.090Z,97925.90
2018-06-14T22:13:07.299Z,97927.53
2018-06-14T22:15:36.573Z,97934.23
2018-06-14T22:18:05.859Z,97931.28
2018-06-14T22:20:35.203Z,97932.62
2018-06-14T22:23:04.473Z,97932.88
2018-06-14T22:25:33.707Z,97932.91
2018-06-14T22:28:02.962Z,97930.73
2018-06-14T22:30:32.224Z,97931.00
2018-06-14T22:34:15.962Z,97935.81
2018-06-14T22:36:45.252Z,97927.50
2018-06-14T22:39:14.542Z,97929.36
2018-06-14T22:41:43.803Z,97928.28
2018-06-14T22:44:13.070Z,97922.69
2018-06-14T22:46:42.048Z,97919.70
2018-06-14T22:49:11.025Z,97916.78
2018-06-14T22:52:51.144Z,97917.03
2018-06-14T22:55:21.723Z,97916.80
2018-06-14T22:57:51.118Z,97911.43
2018-06-14T23:01:28.300Z,97909.02
2018-06-14T23:03:58.430Z,97909.02
2018-06-14T23:06:27.674Z,97909.27
2018-06-14T23:08:57.094Z,97910.33
2018-06-14T23:11:26.346Z,97913.81
2018-06-14T23:13:55.637Z,97908.17
2018-06-14T23:16:24.954Z,97910.85
2018-06-14T23:18:54.206Z,97901.23
2018-06-14T23:21:23.490Z,97905.52
2018-06-14T23:23:52.729Z,97903.91
2018-06-14T23:26:22.015Z,97899.34
2018-06-14T23:28:51.255Z,97900.44
2018-06-14T23:31:20.548Z,97898.81
2018-06-14T23:33:49.795Z,97892.66
2018-06-14T23:36:19.033Z,97896.42
2018-06-14T23:38:48.342Z,97894.00
2018-06-14T23:41:17.574Z,97900.14
2018-06-14T23:43:46.846Z,97896.66
2018-06-14T23:46:16.151Z,97898.50
2018-06-14T23:48:47.542Z,97898.47
2018-06-14T23:51:16.764Z,97894.19
2018-06-14T23:53:46.021Z,97896.33
2018-06-14T23:56:15.287Z,97898.20
2018-06-14T23:58:44.594Z,97893.66
